createdAt,value
2022-10-11T00:00:40.881Z,9.278281
2022-10-11T00:01:40.988Z,9.278295
2022-10-11T00:02:40.869Z,9.278266
2022-10-11T00:03:40.837Z,9.278295
2022-10-11T00:04:40.905Z,9.278347
2022-10-11T00:05:40.806Z,9.278359
2022-10-11T00:06:40.857Z,9.278335
2022-10-11T00:07:40.783Z,9.278322
2022-10-11T00:08:40.753Z,9.278410
2022-10-11T00:09:40.772Z,9.278383
2022-10-11T00:10:40.741Z,9.278274
2022-10-11T00:11:41.715Z,9.278311
2022-10-11T00:12:40.695Z,9.278323
2022-10-11T00:13:40.683Z,9.278365
2022-10-11T00:14:40.805Z,9.278280
2022-10-11T00:15:40.651Z,9.278245
2022-10-11T00:16:40.620Z,9.278312
2022-10-11T00:17:40.681Z,9.278399
2022-10-11T00:18:40.627Z,9.278302
2022-10-11T00:19:40.596Z,9.278376
2022-10-11T00:20:40.553Z,9.278333
2022-10-11T00:21:40.541Z,9.278278
2022-10-11T00:22:40.529Z,9.278295
2022-10-11T00:23:40.505Z,9.278381
2022-10-11T00:24:40.630Z,9.278402
2022-10-11T00:25:40.544Z,9.278357
2022-10-11T00:26:45.734Z,9.278342
2022-10-11T00:27:42.470Z,9.278379
2022-10-11T00:28:40.627Z,9.278315
2022-10-11T00:29:40.440Z,9.278363
2022-10-11T00:30:40.390Z,9.278325
2022-10-11T00:31:40.376Z,9.278377
2022-10-11T00:32:40.366Z,9.278495
2022-10-11T00:33:40.322Z,9.278255
2022-10-11T00:34:40.475Z,9.278316
2022-10-11T00:35:40.294Z,9.278277
2022-10-11T00:36:40.325Z,9.278333
2022-10-11T00:37:40.260Z,9.278318
2022-10-11T00:38:40.260Z,9.278394
2022-10-11T00:39:40.314Z,9.278255
2022-10-11T00:40:40.190Z,9.278173
2022-10-11T00:41:40.172Z,9.278302
2022-10-11T00:42:40.194Z,9.278279
2022-10-11T00:43:40.197Z,9.278224
2022-10-11T00:44:40.232Z,9.278285
2022-10-11T00:45:40.142Z,9.278292
2022-10-11T00:46:40.105Z,9.278326
2022-10-11T00:47:40.077Z,9.278068
2022-10-11T00:48:40.082Z,9.278052
2022-10-11T00:49:40.082Z,9.278109
2022-10-11T00:50:40.090Z,9.278063
2022-10-11T00:51:40.032Z,9.277968
2022-10-11T00:52:40.006Z,9.278071
2022-10-11T00:53:39.980Z,9.278381
2022-10-11T00:54:40.103Z,9.278188
2022-10-11T00:55:39.990Z,9.278255
2022-10-11T00:56:39.932Z,9.278321
2022-10-11T00:57:39.930Z,9.278365
2022-10-11T00:58:39.909Z,9.278315
2022-10-11T00:59:39.911Z,9.278357
2022-10-11T01:00:39.868Z,9.278382
2022-10-11T01:01:39.911Z,9.278295
2022-10-11T01:02:39.823Z,9.278189
2022-10-11T01:03:39.836Z,9.278388
2022-10-11T01:04:39.865Z,9.278356
2022-10-11T01:05:39.789Z,9.278276
2022-10-11T01:06:39.752Z,9.278338
2022-10-11T01:07:39.746Z,9.278281
2022-10-11T01:08:39.729Z,9.278319
2022-10-11T01:09:39.763Z,9.278330
2022-10-11T01:10:39.724Z,9.278334
2022-10-11T01:11:39.751Z,9.278334
2022-10-11T01:12:39.756Z,9.278320
2022-10-11T01:13:40.636Z,9.278392
2022-10-11T01:14:39.672Z,9.278247
2022-10-11T01:15:39.598Z,9.278343
2022-10-11T01:16:39.601Z,9.278358
2022-10-11T01:17:39.571Z,9.278376
2022-10-11T01:18:39.563Z,9.278347
2022-10-11T01:19:39.579Z,9.278298
2022-10-11T01:20:39.555Z,9.278228
2022-10-11T01:21:39.529Z,9.278360
2022-10-11T01:22:39.502Z,9.278302
2022-10-11T01:23:39.609Z,9.278377
2022-10-11T01:24:39.587Z,9.278338
2022-10-11T01:25:39.515Z,9.278370
2022-10-11T01:26:39.418Z,9.278318
2022-10-11T01:27:39.434Z,9.278343
2022-10-11T01:28:39.447Z,9.278403
2022-10-11T01:29:39.419Z,9.278310
2022-10-11T01:30:39.383Z,9.278434
2022-10-11T01:31:39.343Z,9.278398
2022-10-11T01:32:39.306Z,9.278462
2022-10-11T01:33:39.318Z,9.278443
2022-10-11T01:34:39.381Z,9.278391
2022-10-11T01:35:39.315Z,9.278428
2022-10-11T01:36:39.274Z,9.278360
2022-10-11T01:37:39.240Z,9.278377
2022-10-11T01:38:39.245Z,9.278416
2022-10-11T01:39:39.189Z,9.278325
2022-10-11T01:40:39.232Z,9.278370
2022-10-11T01:41:39.165Z,9.278273
2022-10-11T01:42:39.151Z,9.278348
2022-10-11T01:43:39.108Z,9.278341
2022-10-11T01:44:39.157Z,9.278376
2022-10-11T01:45:39.315Z,9.278287
2022-10-11T01:46:39.102Z,9.278393
2022-10-11T01:47:39.055Z,9.278403
2022-10-11T01:48:39.043Z,9.278416
2022-10-11T01:49:39.007Z,9.278411
2022-10-11T01:50:39.031Z,9.278301
2022-10-11T01:51:38.981Z,9.278085
2022-10-11T01:52:38.975Z,9.278158
2022-10-11T01:53:39.932Z,9.278209
2022-10-11T01:55:07.684Z,9.278293
2022-10-11T01:55:40.948Z,9.278317
2022-10-11T01:56:38.938Z,9.278277
2022-10-11T01:57:38.880Z,9.278307
2022-10-11T01:58:38.888Z,9.278326
2022-10-11T01:59:38.873Z,9.278302
2022-10-11T02:00:38.871Z,9.278357
2022-10-11T02:01:39.872Z,9.278240
2022-10-11T02:02:38.796Z,9.278165
2022-10-11T02:03:38.784Z,9.278312
2022-10-11T02:04:38.805Z,9.278327
2022-10-11T02:05:38.787Z,9.278347
2022-10-11T02:06:38.734Z,9.278296
2022-10-11T02:07:38.800Z,9.278316
2022-10-11T02:08:38.694Z,9.278271
2022-10-11T02:09:38.693Z,9.278229
2022-10-11T02:10:38.693Z,9.278281
2022-10-11T02:11:38.654Z,9.278193
2022-10-11T02:12:38.667Z,9.278288
2022-10-11T02:13:38.614Z,9.278234
2022-10-11T02:14:38.650Z,9.278328
2022-10-11T02:15:38.614Z,9.278208
2022-10-11T02:16:38.545Z,9.278180
2022-10-11T02:17:38.565Z,9.278286
2022-10-11T02:18:38.629Z,9.278259
2022-10-11T02:19:38.496Z,9.278249
2022-10-11T02:20:38.508Z,9.278236
2022-10-11T02:21:38.474Z,9.278218
2022-10-11T02:22:38.483Z,9.278218
2022-10-11T02:23:38.450Z,9.278278
2022-10-11T02:24:38.448Z,9.278259
2022-10-11T02:25:38.441Z,9.278255
2022-10-11T02:26:38.388Z,9.278249
2022-10-11T02:27:38.367Z,9.278286
2022-10-11T02:28:38.404Z,9.278267
2022-10-11T02:29:38.366Z,9.278274
2022-10-11T02:30:38.362Z,9.278241
2022-10-11T02:31:38.308Z,9.278126
2022-10-11T02:32:38.275Z,9.278161
2022-10-11T02:33:38.286Z,9.278307
2022-10-11T02:34:38.235Z,9.278349
2022-10-11T02:35:38.259Z,9.278358
2022-10-11T02:36:38.213Z,9.278337
2022-10-11T02:37:38.199Z,9.278338
2022-10-11T02:38:38.177Z,9.278247
2022-10-11T02:39:38.174Z,9.278218
2022-10-11T02:40:38.272Z,9.278313
2022-10-11T02:41:38.137Z,9.278339
2022-10-11T02:42:38.113Z,9.278328
2022-10-11T02:43:38.105Z,9.278308
2022-10-11T02:44:38.100Z,9.278333
2022-10-11T02:45:38.107Z,9.278352
2022-10-11T02:46:38.068Z,9.278320
2022-10-11T02:47:38.035Z,9.278304
2022-10-11T02:48:38.022Z,9.278263
2022-10-11T02:49:37.992Z,9.278148
2022-10-11T02:50:38.003Z,9.278285
2022-10-11T02:51:38.058Z,9.278275
2022-10-11T02:52:37.951Z,9.278354
2022-10-11T02:53:37.927Z,9.278429
2022-10-11T02:54:37.912Z,9.278419
2022-10-11T02:55:37.940Z,9.278240
2022-10-11T02:56:37.888Z,9.278298
2022-10-11T02:57:37.883Z,9.278275
2022-10-11T02:58:37.866Z,9.278373
2022-10-11T02:59:37.898Z,9.278408
2022-10-11T03:00:37.836Z,9.278435
2022-10-11T03:01:37.877Z,9.278392
2022-10-11T03:02:37.773Z,9.278107
2022-10-11T03:03:37.780Z,9.278043
2022-10-11T03:04:37.759Z,9.278144
2022-10-11T03:05:37.783Z,9.278147
2022-10-11T03:06:37.724Z,9.278181
2022-10-11T03:07:37.703Z,9.278255
2022-10-11T03:08:37.701Z,9.278152
2022-10-11T03:09:37.659Z,9.277968
2022-10-11T03:10:37.675Z,9.278130
2022-10-11T03:11:37.623Z,9.278071
2022-10-11T03:12:37.592Z,9.278112
2022-10-11T03:13:37.599Z,9.278201
2022-10-11T03:14:37.559Z,9.278093
2022-10-11T03:15:37.571Z,9.278060
2022-10-11T03:16:37.530Z,9.278260
2022-10-11T03:17:37.777Z,9.278316
2022-10-11T03:18:37.492Z,9.278306
2022-10-11T03:19:37.479Z,9.278463
2022-10-11T03:20:37.509Z,9.278400
2022-10-11T03:21:37.441Z,9.278387
2022-10-11T03:22:37.425Z,9.278379
2022-10-11T03:23:37.411Z,9.278465
2022-10-11T03:24:37.391Z,9.278325
2022-10-11T03:25:37.466Z,9.278495
2022-10-11T03:26:37.381Z,9.278379
2022-10-11T03:27:37.337Z,9.278338
2022-10-11T03:28:37.367Z,9.278385
2022-10-11T03:29:37.309Z,9.278387
2022-10-11T03:30:37.351Z,9.278260
2022-10-11T03:31:37.293Z,9.278201
2022-10-11T03:32:37.247Z,9.278258
2022-10-11T03:33:37.246Z,9.278298
2022-10-11T03:34:37.242Z,9.278240
2022-10-11T03:35:37.249Z,9.278276
2022-10-11T03:36:37.193Z,9.278312
2022-10-11T03:37:37.186Z,9.278301
2022-10-11T03:38:37.173Z,9.278263
2022-10-11T03:39:37.128Z,9.278311
2022-10-11T03:40:37.150Z,9.278333
2022-10-11T03:41:37.141Z,9.278458
2022-10-11T03:42:37.098Z,9.278394
2022-10-11T03:43:37.072Z,9.278383
2022-10-11T03:44:37.055Z,9.278330
2022-10-11T03:45:37.078Z,9.278321
2022-10-11T03:46:37.050Z,9.278324
2022-10-11T03:47:36.995Z,9.278347
2022-10-11T03:48:37.013Z,9.278334
2022-10-11T03:49:41.348Z,9.278278
2022-10-11T03:50:39.031Z,9.278256
2022-10-11T03:51:36.937Z,9.278217
2022-10-11T03:52:36.923Z,9.278320
2022-10-11T03:53:36.918Z,9.278261
2022-10-11T03:54:36.894Z,9.278289
2022-10-11T03:55:36.898Z,9.278334
2022-10-11T03:56:36.850Z,9.278232
2022-10-11T03:57:36.835Z,9.278317
2022-10-11T03:58:36.812Z,9.278336
2022-10-11T03:59:36.814Z,9.278325
2022-10-11T04:00:36.821Z,9.278316
2022-10-11T04:01:36.864Z,9.278296
2022-10-11T04:02:39.186Z,9.278281
2022-10-11T04:03:37.741Z,9.278283
2022-10-11T04:04:36.728Z,9.278338
2022-10-11T04:05:36.726Z,9.278324
2022-10-11T04:06:36.667Z,9.278281
2022-10-11T04:07:36.668Z,9.278346
2022-10-11T04:08:36.642Z,9.278257
2022-10-11T04:09:36.641Z,9.278303
2022-10-11T04:10:36.645Z,9.278326
2022-10-11T04:11:36.596Z,9.278248
2022-10-11T04:12:36.570Z,9.278326
2022-10-11T04:13:36.553Z,9.278200
2022-10-11T04:14:36.540Z,9.278377
2022-10-11T04:15:36.517Z,9.278290
2022-10-11T04:16:36.535Z,9.278422
2022-10-11T04:17:36.492Z,9.278375
2022-10-11T04:18:36.465Z,9.278350
2022-10-11T04:19:36.482Z,9.278415
2022-10-11T04:20:36.429Z,9.278381
2022-10-11T04:21:36.443Z,9.278328
2022-10-11T04:22:36.406Z,9.278234
2022-10-11T04:23:36.396Z,9.278144
2022-10-11T04:24:36.363Z,9.278095
2022-10-11T04:25:36.336Z,9.278257
2022-10-11T04:26:37.385Z,9.278292
2022-10-11T04:27:36.310Z,9.278270
2022-10-11T04:28:36.355Z,9.278161
2022-10-11T04:29:36.291Z,9.278136
2022-10-11T04:30:36.272Z,9.278106
2022-10-11T04:31:36.289Z,9.278186
2022-10-11T04:32:36.242Z,9.278210
2022-10-11T04:33:36.251Z,9.278139
2022-10-11T04:34:36.206Z,9.278150
2022-10-11T04:35:36.175Z,9.278083
2022-10-11T04:36:36.217Z,9.278166
2022-10-11T04:37:36.145Z,9.278453
2022-10-11T04:38:36.138Z,9.278350
2022-10-11T04:39:36.146Z,9.278289
2022-10-11T04:40:36.140Z,9.278280
2022-10-11T04:41:36.095Z,9.278306
2022-10-11T04:42:36.110Z,9.278142
2022-10-11T04:43:36.085Z,9.278265
2022-10-11T04:44:36.069Z,9.278274
2022-10-11T04:45:36.075Z,9.278371
2022-10-11T04:46:36.022Z,9.278417
2022-10-11T04:47:35.985Z,9.278326
2022-10-11T04:48:35.962Z,9.278337
2022-10-11T04:49:35.945Z,9.278341
2022-10-11T04:50:35.999Z,9.278386
2022-10-11T04:51:35.961Z,9.278497
2022-10-11T04:52:35.887Z,9.278348
2022-10-11T04:53:35.877Z,9.278399
2022-10-11T04:54:35.883Z,9.278505
2022-10-11T04:55:35.876Z,9.278071
2022-10-11T04:56:35.859Z,9.278266
2022-10-11T04:57:35.833Z,9.278400
2022-10-11T04:58:35.809Z,9.278238
2022-10-11T04:59:35.791Z,9.278120
2022-10-11T05:00:35.847Z,9.278125
2022-10-11T05:01:35.785Z,9.278201
2022-10-11T05:02:35.726Z,9.278323
2022-10-11T05:03:35.716Z,9.278337
2022-10-11T05:04:35.712Z,9.278347
2022-10-11T05:05:35.713Z,9.278189
2022-10-11T05:06:36.673Z,9.278285
2022-10-11T05:07:35.633Z,9.278144
2022-10-11T05:08:35.628Z,9.278131
2022-10-11T05:09:35.608Z,9.278282
2022-10-11T05:10:35.636Z,9.278294
2022-10-11T05:11:35.584Z,9.278217
2022-10-11T05:12:35.570Z,9.278266
2022-10-11T05:13:35.564Z,9.278379
2022-10-11T05:14:35.549Z,9.278409
2022-10-11T05:15:35.546Z,9.278337
2022-10-11T05:16:35.500Z,9.278346
2022-10-11T05:17:35.495Z,9.278382
2022-10-11T05:18:35.482Z,9.278186
2022-10-11T05:19:35.434Z,9.278290
2022-10-11T05:20:35.462Z,9.278293
2022-10-11T05:21:35.417Z,9.278349
2022-10-11T05:22:35.376Z,9.278571
2022-10-11T05:23:35.394Z,9.278584
2022-10-11T05:24:35.361Z,9.278589
2022-10-11T05:25:35.385Z,9.278461
2022-10-11T05:26:35.321Z,9.278466
2022-10-11T05:27:35.293Z,9.278477
2022-10-11T05:28:35.311Z,9.278395
2022-10-11T05:29:35.272Z,9.278323
2022-10-11T05:30:35.282Z,9.278243
2022-10-11T05:31:35.230Z,9.278325
2022-10-11T05:32:35.212Z,9.278420
2022-10-11T05:33:35.249Z,9.278365
2022-10-11T05:34:35.193Z,9.278350
2022-10-11T05:35:35.222Z,9.278401
2022-10-11T05:36:35.169Z,9.278530
2022-10-11T05:37:35.135Z,9.278784
2022-10-11T05:38:35.119Z,9.278815
2022-10-11T05:39:35.086Z,9.278768
2022-10-11T05:40:35.119Z,9.278716
2022-10-11T05:41:35.073Z,9.278611
2022-10-11T05:42:35.032Z,9.278571
2022-10-11T05:43:35.061Z,9.278601
2022-10-11T05:44:35.008Z,9.278590
2022-10-11T05:45:34.974Z,9.278479
2022-10-11T05:46:35.040Z,9.278451
2022-10-11T05:47:34.954Z,9.278337
2022-10-11T05:48:34.938Z,9.278309
2022-10-11T05:49:34.926Z,9.278290
2022-10-11T05:50:34.904Z,9.278241
2022-10-11T05:51:34.919Z,9.278337
2022-10-11T05:52:34.894Z,9.278321
2022-10-11T05:53:34.851Z,9.278244
2022-10-11T05:54:35.878Z,9.278255
2022-10-11T05:55:34.822Z,9.278238
2022-10-11T05:56:34.832Z,9.278392
2022-10-11T05:57:34.769Z,9.278446
2022-10-11T05:58:34.799Z,9.278419
2022-10-11T05:59:34.766Z,9.278374
2022-10-11T06:00:34.748Z,9.278316
2022-10-11T06:01:34.861Z,9.278314
2022-10-11T06:02:34.713Z,9.278311
2022-10-11T06:03:34.722Z,9.278249
2022-10-11T06:04:34.680Z,9.278327
2022-10-11T06:05:34.640Z,9.278380
2022-10-11T06:06:34.653Z,9.278232
2022-10-11T06:07:34.636Z,9.278273
2022-10-11T06:08:34.674Z,9.278375
2022-10-11T06:09:34.595Z,9.278330
2022-10-11T06:10:34.581Z,9.278304
2022-10-11T06:11:34.625Z,9.278410
2022-10-11T06:12:34.522Z,9.278205
2022-10-11T06:13:34.526Z,9.278232
2022-10-11T06:14:34.481Z,9.278182
2022-10-11T06:15:34.510Z,9.278317
2022-10-11T06:16:34.482Z,9.278262
2022-10-11T06:17:34.426Z,9.278289
2022-10-11T06:18:34.433Z,9.278301
2022-10-11T06:19:34.407Z,9.278322
2022-10-11T06:20:34.420Z,9.278318
2022-10-11T06:21:34.407Z,9.278371
2022-10-11T06:22:34.381Z,9.278369
2022-10-11T06:23:34.356Z,9.278323
2022-10-11T06:24:34.342Z,9.278307
2022-10-11T06:25:34.304Z,9.278319
2022-10-11T06:26:34.379Z,9.278266
2022-10-11T06:27:34.268Z,9.278261
2022-10-11T06:28:34.352Z,9.278198
2022-10-11T06:29:34.249Z,9.278185
2022-10-11T06:30:34.219Z,9.278229
2022-10-11T06:31:34.219Z,9.278273
2022-10-11T06:32:34.174Z,9.278284
2022-10-11T06:33:34.158Z,9.278223
2022-10-11T06:34:34.161Z,9.278143
2022-10-11T06:35:34.194Z,9.278099
2022-10-11T06:36:34.222Z,9.278198
2022-10-11T06:37:34.136Z,9.278299
2022-10-11T06:38:34.205Z,9.278326
2022-10-11T06:39:34.063Z,9.278197
2022-10-11T06:40:34.051Z,9.278222
2022-10-11T06:41:34.072Z,9.278152
2022-10-11T06:42:33.990Z,9.278120
2022-10-11T06:43:33.979Z,9.278277
2022-10-11T06:44:33.981Z,9.278325
2022-10-11T06:45:33.977Z,9.278747
2022-10-11T06:46:33.973Z,9.278473
2022-10-11T06:47:33.915Z,9.278106
2022-10-11T06:48:33.922Z,9.278270
2022-10-11T06:49:33.879Z,9.278152
2022-10-11T06:50:57.865Z,9.278168
2022-10-11T06:51:35.879Z,9.278274
2022-10-11T06:52:33.850Z,9.278274
2022-10-11T06:53:33.813Z,9.278296
2022-10-11T06:54:33.805Z,9.278255
2022-10-11T06:55:33.783Z,9.278328
2022-10-11T06:56:33.813Z,9.278359
2022-10-11T06:57:33.744Z,9.278329
2022-10-11T06:58:33.778Z,9.278271
2022-10-11T06:59:33.720Z,9.278124
2022-10-11T07:00:33.723Z,9.278261
2022-10-11T07:01:33.782Z,9.278173
2022-10-11T07:02:33.679Z,9.278160
2022-10-11T07:03:33.648Z,9.278256
2022-10-11T07:04:33.623Z,9.278245
2022-10-11T07:05:33.617Z,9.278221
2022-10-11T07:06:33.615Z,9.278296
2022-10-11T07:07:33.579Z,9.278262
2022-10-11T07:08:33.566Z,9.278223
2022-10-11T07:09:33.540Z,9.278310
2022-10-11T07:10:33.510Z,9.277930
2022-10-11T07:11:33.549Z,9.278052
2022-10-11T07:12:33.498Z,9.278017
2022-10-11T07:13:33.471Z,9.278004
2022-10-11T07:14:33.443Z,9.277905
2022-10-11T07:15:33.497Z,9.277939
2022-10-11T07:16:33.453Z,9.278034
2022-10-11T07:17:33.427Z,9.278150
2022-10-11T07:18:33.393Z,9.278458
2022-10-11T07:19:33.370Z,9.278523
2022-10-11T07:20:33.354Z,9.278252
2022-10-11T07:21:33.369Z,9.278130
2022-10-11T07:22:33.328Z,9.278108
2022-10-11T07:23:33.290Z,9.278124
2022-10-11T07:24:33.332Z,9.278063
2022-10-11T07:25:33.265Z,9.278142
2022-10-11T07:26:38.961Z,9.278071
2022-10-11T07:27:35.237Z,9.278153
2022-10-11T07:28:33.335Z,9.278087
2022-10-11T07:29:33.180Z,9.278020
2022-10-11T07:30:33.221Z,9.278007
2022-10-11T07:31:33.230Z,9.277846
2022-10-11T07:32:33.140Z,9.277907
2022-10-11T07:33:33.148Z,9.277758
2022-10-11T07:34:33.159Z,9.277890
2022-10-11T07:35:33.085Z,9.278086
2022-10-11T07:36:33.143Z,9.278147
2022-10-11T07:37:33.081Z,9.278079
2022-10-11T07:38:33.082Z,9.278245
2022-10-11T07:39:33.065Z,9.278381
2022-10-11T07:40:33.025Z,9.278361
2022-10-11T07:41:33.032Z,9.278423
2022-10-11T07:42:32.984Z,9.278399
2022-10-11T07:43:32.967Z,9.278270
2022-10-11T07:44:32.948Z,9.278389
2022-10-11T07:45:32.959Z,9.278448
2022-10-11T07:46:32.946Z,9.278357
2022-10-11T07:47:32.878Z,9.278344
2022-10-11T07:48:32.878Z,9.278354
2022-10-11T07:49:32.966Z,9.278351
2022-10-11T07:50:32.827Z,9.278381
2022-10-11T07:51:32.892Z,9.278450
2022-10-11T07:52:32.781Z,9.278402
2022-10-11T07:53:32.788Z,9.278296
2022-10-11T07:54:32.766Z,9.278262
2022-10-11T07:55:32.751Z,9.278297
2022-10-11T07:56:32.776Z,9.278357
2022-10-11T07:57:32.714Z,9.278320
2022-10-11T07:58:32.712Z,9.278309
2022-10-11T07:59:32.675Z,9.278302
2022-10-11T08:00:32.749Z,9.278371
2022-10-11T08:01:32.757Z,9.278368
2022-10-11T08:02:32.658Z,9.278345
2022-10-11T08:03:32.648Z,9.278332
2022-10-11T08:04:32.577Z,9.278329
2022-10-11T08:05:32.561Z,9.278356
2022-10-11T08:06:32.868Z,9.278346
2022-10-11T08:07:32.545Z,9.278338
2022-10-11T08:08:32.523Z,9.278299
2022-10-11T08:09:32.518Z,9.278316
2022-10-11T08:10:32.492Z,9.278257
2022-10-11T08:11:32.526Z,9.278229
2022-10-11T08:12:32.475Z,9.278263
2022-10-11T08:13:32.460Z,9.278309
2022-10-11T08:14:32.413Z,9.278302
2022-10-11T08:15:32.407Z,9.278301
2022-10-11T08:16:32.431Z,9.278300
2022-10-11T08:17:32.365Z,9.278348
2022-10-11T08:18:32.365Z,9.278359
2022-10-11T08:19:32.367Z,9.278248
2022-10-11T08:20:32.352Z,9.278303
2022-10-11T08:21:32.364Z,9.278329
2022-10-11T08:22:32.268Z,9.278357
2022-10-11T08:23:32.287Z,9.278332
2022-10-11T08:24:37.305Z,9.278308
2022-10-11T08:25:34.248Z,9.278312
2022-10-11T08:26:32.245Z,9.278336
2022-10-11T08:27:32.200Z,9.278319
2022-10-11T08:28:32.238Z,9.278275
2022-10-11T08:29:32.162Z,9.278315
2022-10-11T08:30:32.171Z,9.278310
2022-10-11T08:31:32.161Z,9.278287
2022-10-11T08:32:32.106Z,9.278315
2022-10-11T08:33:32.105Z,9.278318
2022-10-11T08:34:32.083Z,9.278262
2022-10-11T08:35:32.095Z,9.278218
2022-10-11T08:36:32.086Z,9.278223
2022-10-11T08:37:32.027Z,9.278249
2022-10-11T08:38:32.057Z,9.278316
2022-10-11T08:39:32.004Z,9.278307
2022-10-11T08:40:35.300Z,9.278210
2022-10-11T08:41:33.010Z,9.278319
2022-10-11T08:42:31.945Z,9.278356
2022-10-11T08:43:31.945Z,9.278246
2022-10-11T08:44:51.824Z,9.278152
2022-10-11T08:45:33.885Z,9.278212
2022-10-11T08:46:31.951Z,9.278221
2022-10-11T08:47:31.881Z,9.278259
2022-10-11T08:48:31.862Z,9.278214
2022-10-11T08:49:31.835Z,9.278177
2022-10-11T08:50:31.873Z,9.278278
2022-10-11T08:51:31.840Z,9.278240
2022-10-11T08:52:31.801Z,9.278263
2022-10-11T08:53:31.773Z,9.278222
2022-10-11T08:54:31.768Z,9.278272
2022-10-11T08:55:31.807Z,9.278314
2022-10-11T08:56:31.743Z,9.278348
2022-10-11T08:57:31.730Z,9.278345
2022-10-11T08:58:31.728Z,9.278309
2022-10-11T08:59:31.688Z,9.278335
2022-10-11T09:00:31.641Z,9.278314
2022-10-11T09:01:31.701Z,9.278270
2022-10-11T09:02:49.315Z,9.278282
2022-10-11T09:03:33.607Z,9.278265
2022-10-11T09:04:31.598Z,9.278204
2022-10-11T09:05:31.529Z,9.278222
2022-10-11T09:06:31.554Z,9.278214
2022-10-11T09:07:31.527Z,9.278341
2022-10-11T09:08:31.487Z,9.278371
2022-10-11T09:09:31.454Z,9.278260
2022-10-11T09:10:31.494Z,9.278296
2022-10-11T09:11:31.458Z,9.278296
2022-10-11T09:12:34.245Z,9.278288
2022-10-11T09:13:32.413Z,9.278482
2022-10-11T09:14:31.386Z,9.278464
2022-10-11T09:15:31.359Z,9.278491
2022-10-11T09:16:31.404Z,9.278542
2022-10-11T09:17:31.510Z,9.278457
2022-10-11T09:18:31.310Z,9.278270
2022-10-11T09:19:31.308Z,9.278371
2022-10-11T09:20:31.286Z,9.278231
2022-10-11T09:21:31.321Z,9.278057
2022-10-11T09:22:31.249Z,9.278028
2022-10-11T09:23:31.230Z,9.277961
2022-10-11T09:24:31.231Z,9.278374
2022-10-11T09:25:31.199Z,9.278607
2022-10-11T09:26:31.223Z,9.278152
2022-10-11T09:27:50.212Z,9.278337
2022-10-11T09:28:33.214Z,9.277895
2022-10-11T09:29:31.149Z,9.277781
2022-10-11T09:30:31.143Z,9.278154
2022-10-11T09:31:31.152Z,9.278365
2022-10-11T09:32:31.118Z,9.278489
2022-10-11T09:33:31.094Z,9.278442
2022-10-11T09:34:31.055Z,9.278372
2022-10-11T09:35:31.101Z,9.278337
2022-10-11T09:36:31.082Z,9.278266
2022-10-11T09:37:31.013Z,9.278349
2022-10-11T09:38:31.030Z,9.278267
2022-10-11T09:39:31.019Z,9.278350
2022-10-11T09:40:30.952Z,9.278263
2022-10-11T09:41:31.002Z,9.278260
2022-10-11T09:42:30.947Z,9.278290
2022-10-11T09:43:30.911Z,9.278342
2022-10-11T09:44:30.907Z,9.278276
2022-10-11T09:45:30.961Z,9.278254
2022-10-11T09:46:30.890Z,9.278308
2022-10-11T09:47:30.837Z,9.278399
2022-10-11T09:48:30.818Z,9.278268
2022-10-11T09:49:44.443Z,9.278294
2022-10-11T09:50:32.813Z,9.278389
2022-10-11T09:51:30.846Z,9.278438
2022-10-11T09:52:30.761Z,9.278242
2022-10-11T09:53:30.746Z,9.278308
2022-10-11T09:54:30.796Z,9.278214
2022-10-11T09:55:31.699Z,9.278334
2022-10-11T09:56:30.741Z,9.278436
2022-10-11T09:57:30.673Z,9.278374
2022-10-11T09:58:30.660Z,9.278417
2022-10-11T09:59:30.662Z,9.278367
2022-10-11T10:00:30.627Z,9.278297
2022-10-11T10:01:30.692Z,9.278298
2022-10-11T10:02:30.603Z,9.278230
2022-10-11T10:03:30.562Z,9.278329
2022-10-11T10:04:30.576Z,9.278299
2022-10-11T10:05:30.552Z,9.278310
2022-10-11T10:06:30.577Z,9.278362
2022-10-11T10:07:30.538Z,9.278301
2022-10-11T10:08:30.489Z,9.278282
2022-10-11T10:09:30.471Z,9.278304
2022-10-11T10:10:30.459Z,9.278268
2022-10-11T10:11:30.462Z,9.278287
2022-10-11T10:12:30.420Z,9.278262
2022-10-11T10:13:30.422Z,9.278396
2022-10-11T10:14:30.381Z,9.278351
2022-10-11T10:15:30.369Z,9.278378
2022-10-11T10:16:30.428Z,9.278351
2022-10-11T10:17:30.318Z,9.278194
2022-10-11T10:18:30.363Z,9.278265
2022-10-11T10:19:30.305Z,9.278191
2022-10-11T10:20:30.320Z,9.278161
2022-10-11T10:21:30.314Z,9.277955
2022-10-11T10:22:30.293Z,9.278136
2022-10-11T10:23:30.249Z,9.278294
2022-10-11T10:24:30.247Z,9.278216
2022-10-11T10:25:30.225Z,9.278206
2022-10-11T10:26:30.207Z,9.278134
2022-10-11T10:27:30.194Z,9.278297
2022-10-11T10:28:30.179Z,9.278312
2022-10-11T10:29:30.114Z,9.278165
2022-10-11T10:30:35.252Z,9.278163
2022-10-11T10:31:44.178Z,9.278168
2022-10-11T10:32:31.111Z,9.278225
2022-10-11T10:33:30.074Z,9.278171
2022-10-11T10:34:30.084Z,9.278313
2022-10-11T10:35:30.013Z,9.278346
2022-10-11T10:36:30.038Z,9.278127
2022-10-11T10:37:29.988Z,9.278226
2022-10-11T10:38:30.021Z,9.278214
2022-10-11T10:39:29.958Z,9.278185
2022-10-11T10:40:29.925Z,9.278334
2022-10-11T10:41:29.985Z,9.278411
2022-10-11T10:42:29.897Z,9.278292
2022-10-11T10:43:29.904Z,9.278146
2022-10-11T10:44:29.866Z,9.278275
2022-10-11T10:45:29.878Z,9.278284
2022-10-11T10:46:29.894Z,9.278336
2022-10-11T10:47:29.934Z,9.278235
2022-10-11T10:48:41.722Z,9.278262
2022-10-11T10:50:31.786Z,9.278294
2022-10-11T10:51:29.881Z,9.278337
2022-10-11T10:52:29.751Z,9.278344
2022-10-11T10:53:29.736Z,9.278368
2022-10-11T10:54:29.735Z,9.278234
2022-10-11T10:55:29.704Z,9.278154
2022-10-11T10:56:29.729Z,9.278267
2022-10-11T10:57:29.686Z,9.278296
2022-10-11T10:58:29.646Z,9.278354
2022-10-11T10:59:30.325Z,9.278244
2022-10-11T11:00:29.643Z,9.278316
2022-10-11T11:01:29.694Z,9.278431
2022-10-11T11:02:40.228Z,9.278315
2022-10-11T11:03:31.580Z,9.278355
2022-10-11T11:04:29.559Z,9.278318
2022-10-11T11:05:29.531Z,9.278252
2022-10-11T11:06:32.825Z,9.278248
2022-10-11T11:07:30.535Z,9.278193
2022-10-11T11:08:29.490Z,9.278243
2022-10-11T11:09:29.466Z,9.278325
2022-10-11T11:10:29.424Z,9.278167
2022-10-11T11:11:29.473Z,9.278177
2022-10-11T11:12:29.413Z,9.278139
2022-10-11T11:13:29.429Z,9.278287
2022-10-11T11:14:29.423Z,9.278365
2022-10-11T11:15:32.655Z,9.278326
2022-10-11T11:16:31.418Z,9.278258
2022-10-11T11:17:29.320Z,9.278263
2022-10-11T11:18:29.310Z,9.278269
2022-10-11T11:19:29.282Z,9.278310
2022-10-11T11:20:29.296Z,9.278324
2022-10-11T11:21:29.283Z,9.278233
2022-10-11T11:22:32.729Z,9.278268
2022-10-11T11:23:30.240Z,9.278358
2022-10-11T11:24:29.197Z,9.278324
2022-10-11T11:25:29.198Z,9.278248
2022-10-11T11:26:29.206Z,9.278254
2022-10-11T11:27:29.144Z,9.278303
2022-10-11T11:28:29.138Z,9.278311
2022-10-11T11:29:29.097Z,9.278358
2022-10-11T11:30:29.094Z,9.278214
2022-10-11T11:31:29.114Z,9.278128
2022-10-11T11:32:29.058Z,9.278264
2022-10-11T11:33:29.058Z,9.278288
2022-10-11T11:34:29.032Z,9.278269
2022-10-11T11:35:29.003Z,9.278189
2022-10-11T11:36:29.038Z,9.278359
2022-10-11T11:37:29.012Z,9.278419
2022-10-11T11:38:29.881Z,9.278288
2022-10-11T11:39:29.977Z,9.278332
2022-10-11T11:40:28.922Z,9.278354
2022-10-11T11:41:28.905Z,9.278365
2022-10-11T11:42:28.932Z,9.278425
2022-10-11T11:43:28.868Z,9.278399
2022-10-11T11:44:28.881Z,9.278652
2022-10-11T11:45:28.835Z,9.278476